Time;durP1;ratioP1;P1;durP2;ratioP2;P2;SDS_P1;SDS_P2;PMS_P1;PMS_P2;Temp;Humidity;BMP_temperature;BMP_pressure;BME280_temperature;BME280_humidity;BME280_pressure;Samples;Min_cycle;Max_cycle;Signal;HPM_P1;HPM_P2
2023/05/23 00:00:21;;;;;;;27.55;20.00;;;;;;;17.86;64.12;101785.28;5027095;28;20033;-63
2023/05/23 00:02:47;;;;;;;27.40;20.63;;;;;;;17.89;63.92;101777.13;5029268;28;20092;-64
2023/05/23 00:05:14;;;;;;;32.45;21.80;;;;;;;17.87;64.01;101786.94;5027908;28;20405;-63
2023/05/23 00:07:39;;;;;;;25.95;21.60;;;;;;;17.85;64.13;101781.63;5026112;28;20030;-63
2023/05/23 00:10:05;;;;;;;28.67;21.15;;;;;;;17.89;64.21;101784.72;5010478;28;20369;-63
2023/05/23 00:12:32;;;;;;;28.52;21.30;;;;;;;17.87;63.83;101784.97;5009811;28;20037;-64
2023/05/23 00:14:57;;;;;;;27.23;21.33;;;;;;;17.85;64.16;101792.84;5010405;28;20551;-63
2023/05/23 00:17:24;;;;;;;26.10;20.02;;;;;;;17.84;64.17;101791.19;5011325;28;20030;-63
2023/05/23 00:19:49;;;;;;;28.70;20.35;;;;;;;17.80;64.21;101786.38;5014041;28;20135;-63
2023/05/23 00:22:16;;;;;;;25.88;19.30;;;;;;;17.77;64.35;101787.78;5028275;28;20495;-63
2023/05/23 00:24:41;;;;;;;27.20;20.02;;;;;;;17.78;64.01;101791.44;5029560;28;20018;-63
2023/05/23 00:27:07;;;;;;;22.83;18.92;;;;;;;17.78;64.05;101795.09;5013820;28;20045;-63
2023/05/23 00:29:32;;;;;;;25.42;18.15;;;;;;;17.75;64.17;101794.81;5014259;28;20065;-63
2023/05/23 00:31:57;;;;;;;23.33;17.63;;;;;;;17.79;63.83;101793.97;5025962;28;20056;-63
2023/05/23 00:34:23;;;;;;;20.52;17.05;;;;;;;17.83;63.71;101800.69;5020575;28;20500;-63
2023/05/23 00:36:49;;;;;;;23.42;15.63;;;;;;;17.78;63.89;101802.69;5013980;28;20025;-63
2023/05/23 00:39:18;;;;;;;20.40;16.48;;;;;;;17.71;63.93;101796.44;5013415;28;20036;-63
2023/05/23 00:41:46;;;;;;;21.15;15.63;;;;;;;17.75;63.96;101800.41;5017950;28;20477;-64
2023/05/23 00:44:12;;;;;;;19.30;14.45;;;;;;;17.70;64.19;101803.19;5034118;28;20457;-63
2023/05/23 00:46:37;;;;;;;18.98;14.70;;;;;;;17.75;63.76;101801.25;5032725;28;20033;-63
2023/05/23 00:49:03;;;;;;;16.65;13.75;;;;;;;17.76;63.73;101804.91;5027020;28;20053;-63
2023/05/23 00:51:28;;;;;;;19.00;14.05;;;;;;;17.78;63.65;101809.13;5032009;28;20030;-63
2023/05/23 00:53:54;;;;;;;18.30;13.77;;;;;;;17.71;63.59;101802.91;5013320;28;20029;-63
2023/05/23 00:56:19;;;;;;;16.27;13.40;;;;;;;17.70;63.60;101808.81;5013625;28;20478;-63
2023/05/23 00:58:45;;;;;;;16.02;13.13;;;;;;;17.64;63.57;101800.38;5014577;28;20524;-63
2023/05/23 01:01:10;;;;;;;20.10;14.27;;;;;;;17.60;63.82;101807.66;5012981;28;20034;-63
2023/05/23 01:03:36;;;;;;;18.73;14.48;;;;;;;17.70;63.56;101811.63;5021218;28;20112;-63
2023/05/23 01:06:01;;;;;;;15.50;13.80;;;;;;;17.72;63.21;101809.34;5031583;28;20056;-63
2023/05/23 01:08:28;;;;;;;15.45;12.60;;;;;;;17.59;63.16;101808.78;5028437;28;20104;-63
2023/05/23 01:10:58;;;;;;;19.58;13.30;;;;;;;17.63;62.86;101807.09;5033461;28;20063;-63
2023/05/23 01:13:54;;;;;;;21.35;13.55;;;;;;;17.55;62.71;101815.22;5032592;28;20120;-63
2023/05/23 01:16:40;;;;;;;17.25;12.85;;;;;;;17.39;63.07;101817.16;5029677;28;20049;-63
2023/05/23 01:19:16;;;;;;;17.73;13.43;;;;;;;17.31;63.35;101812.06;5026020;28;20037;-63
2023/05/23 01:21:51;;;;;;;18.02;13.20;;;;;;;17.32;63.01;101816.56;5013915;28;20038;-63
2023/05/23 01:24:35;;;;;;;19.63;13.95;;;;;;;17.34;63.28;101814.34;5013073;28;20532;-63
2023/05/23 01:27:19;;;;;;;21.27;14.18;;;;;;;17.38;62.86;101821.91;5021140;28;20040;-63
2023/05/23 01:29:46;;;;;;;22.92;14.73;;;;;;;17.24;62.90;101820.72;5031192;28;20061;-63
2023/05/23 01:32:14;;;;;;;19.98;13.45;;;;;;;17.33;62.82;101819.09;5031917;28;20033;-63
2023/05/23 01:34:40;;;;;;;19.08;13.40;;;;;;;17.35;62.63;101824.44;5031235;28;20044;-63
2023/05/23 01:37:10;;;;;;;18.80;12.32;;;;;;;17.35;62.61;101828.06;5030125;28;20365;-63
2023/05/23 01:39:36;;;;;;;21.05;13.25;;;;;;;17.36;62.35;101831.72;5032083;28;20033;-63
2023/05/23 01:42:03;;;;;;;18.77;13.43;;;;;;;17.34;62.50;101831.16;5024579;28;20040;-63
2023/05/23 01:44:28;;;;;;;18.63;13.05;;;;;;;17.31;62.45;101837.31;5032311;28;20477;-63
2023/05/23 01:46:54;;;;;;;20.58;12.95;;;;;;;17.24;62.64;101826.34;5032220;28;20029;-63
2023/05/23 01:49:22;;;;;;;19.52;13.20;;;;;;;17.21;63.03;101837.25;5021414;28;20123;-63
2023/05/23 01:51:47;;;;;;;20.77;13.40;;;;;;;17.21;62.86;101837.25;5012885;28;20041;-63
2023/05/23 01:54:15;;;;;;;19.45;13.57;;;;;;;17.16;62.90;101843.69;5013790;28;20045;-63
2023/05/23 01:56:41;;;;;;;22.90;14.93;;;;;;;17.19;63.01;101848.78;5012018;28;20014;-63
2023/05/23 01:59:07;;;;;;;20.50;15.07;;;;;;;17.29;62.74;101840.41;5011962;28;20025;-63
2023/05/23 02:01:33;;;;;;;24.55;15.50;;;;;;;17.24;63.08;101851.59;5011736;28;20038;-63
2023/05/23 02:03:58;;;;;;;22.75;15.90;;;;;;;17.20;63.48;101852.41;5028303;28;20041;-63
2023/05/23 02:06:23;;;;;;;24.80;15.73;;;;;;;17.17;63.45;101848.19;5028771;28;20052;-63
2023/05/23 02:08:49;;;;;;;29.13;15.57;;;;;;;17.19;63.48;101845.97;5012159;28;20026;-63
2023/05/23 02:11:14;;;;;;;23.60;15.43;;;;;;;17.24;63.32;101847.94;5011420;28;20115;-63
2023/05/23 02:13:40;;;;;;;25.60;15.40;;;;;;;17.15;64.18;101856.03;5026541;28;20120;-63
2023/05/23 02:16:05;;;;;;;25.55;16.42;;;;;;;17.16;63.82;101854.91;5029123;28;20514;-63
2023/05/23 02:18:30;;;;;;;27.20;16.70;;;;;;;17.14;63.92;101852.41;5023399;28;20034;-63
2023/05/23 02:20:56;;;;;;;27.08;15.63;;;;;;;17.14;63.91;101857.16;5011803;28;20040;-63
2023/05/23 02:23:21;;;;;;;23.40;16.30;;;;;;;17.08;64.11;101861.91;5023751;28;20409;-63
2023/05/23 02:25:47;;;;;;;25.80;16.60;;;;;;;17.05;64.52;101862.44;5013397;28;20036;-63
2023/05/23 02:28:12;;;;;;;24.48;15.80;;;;;;;17.06;64.23;101871.72;5011785;28;20014;-63
2023/05/23 02:30:38;;;;;;;28.73;17.20;;;;;;;16.91;64.74;101872.47;5013234;28;20037;-63
2023/05/23 02:33:06;;;;;;;23.73;16.17;;;;;;;17.01;64.70;101869.69;5026442;28;20030;-63
2023/05/23 02:35:32;;;;;;;29.20;16.30;;;;;;;17.01;64.76;101871.66;5011188;28;20108;-63
2023/05/23 02:37:58;;;;;;;24.80;16.13;;;;;;;16.96;64.88;101874.44;5018247;28;20386;-63
2023/05/23 02:40:23;;;;;;;23.13;15.52;;;;;;;17.01;64.63;101866.06;5015688;28;20033;-63
2023/05/23 02:42:50;;;;;;;22.95;14.60;;;;;;;17.00;64.67;101858.78;5026830;28;20033;-63
2023/05/23 02:45:16;;;;;;;25.73;15.68;;;;;;;17.03;64.81;101877.88;5012846;28;20028;-63
2023/05/23 02:47:41;;;;;;;26.25;15.27;;;;;;;16.92;64.89;101872.19;5010684;28;20022;-63
2023/05/23 02:50:07;;;;;;;21.98;14.10;;;;;;;16.97;64.75;101864.91;5009665;28;20030;-63
2023/05/23 02:52:32;;;;;;;22.08;13.05;;;;;;;16.91;64.74;101867.69;5014503;28;20026;-63
2023/05/23 02:54:57;;;;;;;20.42;12.65;;;;;;;16.82;64.66;101860.91;5018339;28;20021;-63
2023/05/23 02:57:22;;;;;;;23.08;12.50;;;;;;;16.91;64.42;101864.91;5013540;28;20036;-63
2023/05/23 02:59:48;;;;;;;20.35;11.95;;;;;;;16.87;64.49;101866.56;5012622;28;20488;-63
2023/05/23 03:02:13;;;;;;;19.48;11.30;;;;;;;16.87;64.22;101860.94;5012062;28;20034;-63
2023/05/23 03:04:38;;;;;;;16.02;9.55;;;;;;;16.84;64.06;101869.88;5021243;28;20040;-63
2023/05/23 03:07:05;;;;;;;11.45;9.55;;;;;;;16.82;64.06;101868.47;5010181;28;20056;-63
2023/05/23 03:09:30;;;;;;;11.57;9.38;;;;;;;16.85;63.99;101870.72;5015606;28;20036;-63
2023/05/23 03:11:56;;;;;;;12.88;8.80;;;;;;;16.86;63.99;101866.84;5025996;28;20393;-63
2023/05/23 03:14:21;;;;;;;13.93;8.45;;;;;;;16.88;64.03;101870.19;5010694;28;20073;-64
2023/05/23 03:16:46;;;;;;;10.88;7.90;;;;;;;16.90;63.62;101870.78;5015198;28;20404;-63
2023/05/23 03:19:12;;;;;;;10.27;7.75;;;;;;;16.87;63.52;101874.13;5018033;28;20033;-63
2023/05/23 03:21:37;;;;;;;10.23;6.80;;;;;;;16.76;63.39;101870.41;5010253;28;20120;-63
2023/05/23 03:24:03;;;;;;;10.05;7.20;;;;;;;16.84;63.40;101872.69;5010495;28;20041;-63
2023/05/23 03:26:28;;;;;;;8.50;6.30;;;;;;;16.86;63.37;101869.63;5010033;28;20123;-63
2023/05/23 03:28:53;;;;;;;9.40;6.68;;;;;;;16.87;63.32;101872.16;5009761;28;20038;-64
2023/05/23 03:31:19;;;;;;;10.82;7.13;;;;;;;16.89;63.19;101875.53;5017507;28;20030;-63
2023/05/23 03:33:44;;;;;;;8.68;6.82;;;;;;;16.91;63.18;101873.31;5016469;28;20064;-63
2023/05/23 03:36:10;;;;;;;8.50;6.15;;;;;;;16.84;63.66;101872.69;5009771;28;20519;-63
2023/05/23 03:38:35;;;;;;;8.77;6.50;;;;;;;16.80;63.43;101877.16;5024238;28;20031;-63
2023/05/23 03:41:00;;;;;;;9.85;7.30;;;;;;;16.73;63.68;101875.66;5030008;28;20064;-63
2023/05/23 03:43:25;;;;;;;8.90;6.50;;;;;;;16.79;63.54;101880.25;5021943;28;20037;-63
2023/05/23 03:45:51;;;;;;;10.02;6.78;;;;;;;16.75;63.79;101879.09;5015307;28;20478;-63
2023/05/23 03:48:16;;;;;;;9.25;6.90;;;;;;;16.78;63.62;101879.41;5021172;28;20029;-63
2023/05/23 03:50:42;;;;;;;9.55;6.55;;;;;;;16.73;63.71;101879.34;5017512;28;20083;-63
2023/05/23 03:53:07;;;;;;;9.55;7.38;;;;;;;16.72;63.85;101876.78;5029097;28;20025;-63
2023/05/23 03:55:33;;;;;;;10.05;7.15;;;;;;;16.75;63.91;101891.16;5016199;28;20037;-63
2023/05/23 03:57:59;;;;;;;12.65;6.85;;;;;;;16.72;63.86;101879.59;5022933;28;20021;-63
2023/05/23 04:00:25;;;;;;;11.45;7.25;;;;;;;16.75;63.78;101874.31;5032655;28;20024;-63
2023/05/23 04:02:50;;;;;;;9.05;7.32;;;;;;;16.73;63.99;101884.06;5016868;28;20037;-62
2023/05/23 04:05:16;;;;;;;12.57;7.60;;;;;;;16.68;63.89;101896.94;5014708;28;20033;-63
2023/05/23 04:07:42;;;;;;;10.80;7.65;;;;;;;16.76;63.70;101898.44;5032441;28;20083;-63
2023/05/23 04:10:08;;;;;;;10.40;7.38;;;;;;;16.72;63.95;101902.88;5033304;28;20105;-63
2023/05/23 04:12:34;;;;;;;10.43;7.38;;;;;;;16.72;63.90;101902.03;5031242;28;20124;-63
2023/05/23 04:14:59;;;;;;;10.52;7.78;;;;;;;16.73;63.87;101896.16;5033134;28;20459;-63
2023/05/23 04:17:28;;;;;;;12.45;7.15;;;;;;;16.72;63.98;101900.06;5033455;28;20037;-63
2023/05/23 04:19:53;;;;;;;11.27;7.00;;;;;;;16.66;63.88;101899.19;5028192;28;20030;-63
2023/05/23 04:22:19;;;;;;;11.55;7.63;;;;;;;16.68;64.05;101901.72;5029568;28;20033;-63
2023/05/23 04:24:44;;;;;;;10.93;7.85;;;;;;;16.64;64.15;101904.19;5013104;28;20410;-63
2023/05/23 04:27:09;;;;;;;15.75;8.27;;;;;;;16.66;64.19;101915.13;5024218;28;20029;-63
2023/05/23 04:29:35;;;;;;;13.25;8.30;;;;;;;16.63;64.24;101912.88;5030966;28;20029;-63
2023/05/23 04:32:04;;;;;;;13.93;8.52;;;;;;;16.65;64.31;101921.88;5025605;28;20469;-63
2023/05/23 04:34:32;;;;;;;13.95;8.90;;;;;;;16.66;64.13;101910.41;5014488;28;20026;-63
2023/05/23 04:37:00;;;;;;;16.98;9.57;;;;;;;16.66;64.28;101918.81;5012534;28;20072;-63
2023/05/23 04:39:26;;;;;;;15.88;10.00;;;;;;;16.54;64.77;101917.28;5013625;28;20537;-63
2023/05/23 04:41:53;;;;;;;17.08;10.27;;;;;;;16.49;64.73;101914.44;5029564;28;20126;-63
2023/05/23 04:44:19;;;;;;;17.65;10.23;;;;;;;16.51;64.55;101915.03;5014352;28;20052;-64
2023/05/23 04:46:44;;;;;;;18.50;10.57;;;;;;;16.48;64.50;101921.16;5012840;28;20018;-64
2023/05/23 04:49:11;;;;;;;18.13;10.02;;;;;;;16.54;64.51;101917.28;5020551;28;20045;-64
2023/05/23 04:51:37;;;;;;;18.85;10.15;;;;;;;16.48;64.66;101930.41;5030608;28;20029;-63
2023/05/23 04:54:02;;;;;;;25.50;10.70;;;;;;;16.52;64.85;101927.94;5017221;28;20041;-63
2023/05/23 04:56:28;;;;;;;22.13;11.57;;;;;;;16.55;64.62;101935.81;5013321;28;20022;-61
2023/05/23 04:58:53;;;;;;;23.17;12.32;;;;;;;16.35;65.01;101940.13;5027738;28;20440;-61
2023/05/23 05:01:19;;;;;;;24.95;12.23;;;;;;;16.35;65.05;101934.50;5022987;28;20034;-61
2023/05/23 05:03:44;;;;;;;25.58;12.30;;;;;;;16.38;64.93;101944.31;5031576;28;20396;-60
2023/05/23 05:06:10;;;;;;;24.88;12.07;;;;;;;16.38;65.03;101942.34;5026683;28;20064;-62
2023/05/23 05:08:35;;;;;;;26.13;12.15;;;;;;;16.45;64.79;101940.19;5011072;28;20033;-62
2023/05/23 05:11:01;;;;;;;30.80;13.68;;;;;;;16.42;64.80;101949.13;5015373;28;20053;-62
2023/05/23 05:13:26;;;;;;;21.23;12.40;;;;;;;16.39;64.82;101949.69;5012828;28;20064;-62
2023/05/23 05:15:51;;;;;;;27.65;13.07;;;;;;;16.43;64.71;101950.84;5014838;28;20523;-62
2023/05/23 05:18:17;;;;;;;28.05;12.15;;;;;;;16.44;64.64;101955.31;5017986;28;20081;-62
2023/05/23 05:20:42;;;;;;;24.58;12.45;;;;;;;16.44;64.54;101957.28;5015079;28;20663;-62
2023/05/23 05:23:08;;;;;;;22.67;12.10;;;;;;;16.41;64.83;101964.25;5021944;28;20042;-62
2023/05/23 05:25:35;;;;;;;24.55;11.45;;;;;;;16.38;64.55;101959.19;5027997;28;20041;-62
2023/05/23 05:28:04;;;;;;;21.60;12.05;;;;;;;16.36;64.60;101967.00;5022178;28;20432;-62
2023/05/23 05:30:32;;;;;;;25.90;12.15;;;;;;;16.38;64.43;101963.94;5016263;28;20022;-62
2023/05/23 05:32:57;;;;;;;25.10;11.77;;;;;;;16.35;64.22;101968.13;5024673;28;20025;-62
2023/05/23 05:35:23;;;;;;;31.42;13.40;;;;;;;16.28;64.33;101975.06;5019661;28;20094;-62
2023/05/23 05:37:48;;;;;;;30.42;12.75;;;;;;;16.23;63.92;101984.25;5030997;28;20029;-62
2023/05/23 05:40:14;;;;;;;31.52;12.73;;;;;;;16.17;64.51;101979.69;5017729;28;20768;-62
2023/05/23 05:42:39;;;;;;;25.20;11.73;;;;;;;16.17;64.06;101976.91;5011191;28;20042;-62
2023/05/23 05:45:05;;;;;;;27.20;11.50;;;;;;;16.15;64.04;101985.56;5015099;28;20021;-61
2023/05/23 05:47:30;;;;;;;30.95;12.43;;;;;;;16.17;64.07;101983.34;5025765;28;20033;-62
2023/05/23 05:49:56;;;;;;;31.10;12.20;;;;;;;16.18;63.90;101986.97;5026435;28;20365;-62
2023/05/23 05:52:21;;;;;;;27.27;10.88;;;;;;;16.18;63.81;101984.19;5027235;28;20022;-62
2023/05/23 05:54:46;;;;;;;30.00;11.07;;;;;;;16.01;63.91;101991.84;5013082;28;20499;-62
2023/05/23 05:57:12;;;;;;;33.42;10.88;;;;;;;16.00;63.95;101992.94;5019445;28;20080;-62
2023/05/23 05:59:37;;;;;;;32.55;11.02;;;;;;;16.00;64.11;101999.41;5020178;28;20033;-62
2023/05/23 06:02:02;;;;;;;28.85;10.38;;;;;;;15.95;64.04;102000.19;5012188;28;20037;-62
2023/05/23 06:04:28;;;;;;;26.60;10.90;;;;;;;16.04;64.04;101997.75;5020747;28;20038;-62
2023/05/23 06:06:53;;;;;;;28.35;10.40;;;;;;;16.03;63.78;102003.59;5015729;28;20030;-62
2023/05/23 06:09:18;;;;;;;23.83;10.30;;;;;;;16.05;63.69;102007.00;5012910;28;20041;-64
2023/05/23 06:11:44;;;;;;;23.17;9.02;;;;;;;16.03;63.77;102012.84;5015061;28;20036;-63
2023/05/23 06:14:09;;;;;;;21.33;9.00;;;;;;;16.03;63.62;102017.59;5013408;28;20030;-62
2023/05/23 06:16:34;;;;;;;15.75;8.13;;;;;;;15.88;63.31;102021.09;5030066;28;20452;-62
2023/05/23 06:18:59;;;;;;;22.48;8.82;;;;;;;15.92;63.50;102019.47;5025469;28;20044;-62
2023/05/23 06:21:25;;;;;;;17.92;7.57;;;;;;;15.94;62.98;102032.06;5019933;28;20377;-62
2023/05/23 06:23:51;;;;;;;17.08;7.15;;;;;;;15.89;62.87;102023.63;5029961;28;20041;-62
2023/05/23 06:26:16;;;;;;;25.23;7.43;;;;;;;15.89;62.87;102028.38;5025717;28;20389;-62
2023/05/23 06:28:41;;;;;;;13.63;6.50;;;;;;;15.95;62.71;102032.91;5011576;28;20026;-62
2023/05/23 06:31:10;;;;;;;10.32;6.05;;;;;;;15.87;62.71;102037.00;5010727;28;20034;-63
2023/05/23 06:33:35;;;;;;;17.30;6.78;;;;;;;15.91;62.46;102040.13;5011283;28;20117;-62
2023/05/23 06:36:01;;;;;;;11.00;5.43;;;;;;;15.92;62.62;102039.91;5015724;28;20116;-62
2023/05/23 06:38:29;;;;;;;13.95;6.03;;;;;;;15.90;62.03;102032.84;5015839;28;20033;-62
2023/05/23 06:40:55;;;;;;;13.93;5.93;;;;;;;15.93;61.72;102030.38;5022016;28;20033;-61
2023/05/23 06:43:20;;;;;;;13.52;6.57;;;;;;;15.86;61.71;102046.53;5030532;28;20026;-63
2023/05/23 06:45:49;;;;;;;11.13;5.47;;;;;;;15.88;61.73;102057.47;5012230;28;20127;-62
2023/05/23 06:48:14;;;;;;;15.38;6.50;;;;;;;15.81;61.91;102054.03;5010772;28;20028;-62
2023/05/23 06:50:40;;;;;;;17.90;6.95;;;;;;;15.82;61.74;102056.56;5010274;28;20029;-63
2023/05/23 06:53:05;;;;;;;12.63;5.97;;;;;;;15.85;61.71;102058.84;5009243;28;20073;-63
2023/05/23 06:55:32;;;;;;;12.05;6.22;;;;;;;15.87;61.85;102065.00;5015778;28;20034;-63
2023/05/23 06:58:02;;;;;;;11.48;6.03;;;;;;;15.80;62.23;102069.97;5009638;28;20508;-62
2023/05/23 07:00:31;;;;;;;11.68;6.10;;;;;;;15.87;61.83;102076.22;5006750;28;20423;-62
2023/05/23 07:03:02;;;;;;;12.55;5.57;;;;;;;15.83;61.74;102077.84;5018318;28;20423;-62
2023/05/23 07:05:27;;;;;;;13.35;5.75;;;;;;;15.81;61.47;102077.25;5023948;28;20033;-62
2023/05/23 07:07:53;;;;;;;14.20;6.32;;;;;;;15.82;60.99;102084.56;5027939;28;20025;-62
2023/05/23 07:10:18;;;;;;;13.93;5.60;;;;;;;15.80;61.09;102083.09;5016020;28;20744;-62
2023/05/23 07:12:44;;;;;;;11.20;5.80;;;;;;;15.81;60.87;102082.88;5012434;28;20036;-62
2023/05/23 07:15:11;;;;;;;19.52;5.88;;;;;;;15.84;60.59;102085.16;5015230;28;20076;-62
2023/05/23 07:17:36;;;;;;;15.85;6.38;;;;;;;15.78;59.70;102083.38;5018941;28;20796;-61
2023/05/23 07:20:03;;;;;;;11.95;5.50;;;;;;;15.81;58.62;102077.25;5009771;28;20025;-63
2023/05/23 07:22:28;;;;;;;16.75;5.90;;;;;;;15.83;58.33;102088.19;5014242;28;20542;-63
2023/05/23 07:24:54;;;;;;;14.18;5.53;;;;;;;15.78;58.14;102086.16;5024591;28;20025;-64
2023/05/23 07:27:19;;;;;;;16.20;5.88;;;;;;;15.81;57.20;102090.41;5013506;28;20057;-64
2023/05/23 07:29:45;;;;;;;11.48;5.30;;;;;;;15.75;56.91;102089.47;5011844;28;20077;-63
2023/05/23 07:32:10;;;;;;;12.98;5.40;;;;;;;15.76;56.85;102099.59;5020891;28;20041;-63
2023/05/23 07:34:35;;;;;;;12.10;5.40;;;;;;;15.77;56.56;102090.09;5011660;28;20041;-63
2023/05/23 07:37:00;;;;;;;15.32;5.63;;;;;;;15.84;56.59;102087.94;5014253;28;20059;-64
2023/05/23 07:39:26;;;;;;;12.48;5.50;;;;;;;15.95;57.00;102095.41;5020570;28;20029;-64
2023/05/23 07:41:52;;;;;;;15.68;6.50;;;;;;;16.00;56.19;102103.00;5017834;28;20037;-65
2023/05/23 07:44:18;;;;;;;13.63;5.55;;;;;;;15.97;55.54;102103.53;5013959;28;20034;-65
2023/05/23 07:46:43;;;;;;;17.30;5.90;;;;;;;15.91;55.30;102102.59;5014175;28;20029;-64
2023/05/23 07:49:08;;;;;;;12.15;5.47;;;;;;;15.98;54.80;102101.56;5017706;28;20034;-64
2023/05/23 07:51:34;;;;;;;13.93;6.05;;;;;;;15.93;54.55;102108.78;5012923;28;20564;-64
2023/05/23 07:53:59;;;;;;;14.45;6.45;;;;;;;15.93;54.89;102103.19;5012927;28;20133;-64
2023/05/23 07:56:25;;;;;;;17.75;6.93;;;;;;;15.91;54.79;102108.19;5019695;28;20044;-63
2023/05/23 07:58:50;;;;;;;14.45;6.20;;;;;;;15.89;55.49;102113.22;5016277;28;20080;-63
2023/05/23 08:01:17;;;;;;;17.33;6.80;;;;;;;15.94;55.83;102116.06;5021294;28;20021;-63
2023/05/23 08:03:42;;;;;;;14.13;6.63;;;;;;;15.95;55.88;102112.19;5027017;28;20038;-63
2023/05/23 08:06:08;;;;;;;14.65;6.05;;;;;;;15.88;56.21;102116.28;5018547;28;20033;-65
2023/05/23 08:08:33;;;;;;;9.27;5.90;;;;;;;15.86;55.36;102129.69;5014756;28;20038;-62
2023/05/23 08:10:58;;;;;;;11.95;6.10;;;;;;;15.75;55.57;102123.06;5011660;28;20072;-64
2023/05/23 08:13:24;;;;;;;13.80;6.00;;;;;;;15.86;55.84;102143.69;5018596;28;20389;-67
2023/05/23 08:15:49;;;;;;;13.40;5.88;;;;;;;15.88;55.89;102133.94;5024884;28;20128;-66
2023/05/23 08:18:15;;;;;;;13.68;5.97;;;;;;;15.93;56.06;102136.78;5019556;28;20029;-66
2023/05/23 08:20:41;;;;;;;12.73;6.22;;;;;;;15.99;55.36;102134.06;5019197;28;20108;-65
2023/05/23 08:23:06;;;;;;;13.85;5.78;;;;;;;15.92;55.45;102129.50;5017326;28;20506;-64
2023/05/23 08:25:32;;;;;;;14.10;6.30;;;;;;;15.93;55.60;102135.94;5023476;28;20040;-63
2023/05/23 08:28:00;;;;;;;13.57;6.32;;;;;;;16.00;56.10;102142.22;5016255;28;20081;-64
2023/05/23 08:30:26;;;;;;;13.88;6.05;;;;;;;16.01;55.37;102140.25;5009774;28;20026;-63
2023/05/23 08:32:52;;;;;;;13.07;5.72;;;;;;;16.02;55.51;102133.53;5011530;28;20048;-64
2023/05/23 08:35:17;;;;;;;13.50;6.15;;;;;;;15.98;55.65;102121.16;5018016;28;20022;-64
2023/05/23 08:37:45;;;;;;;13.18;6.22;;;;;;;15.94;55.87;102138.47;5025681;28;20077;-64
2023/05/23 08:40:14;;;;;;;10.45;5.78;;;;;;;15.94;56.09;102143.22;5032241;28;20072;-63
2023/05/23 08:42:39;;;;;;;14.18;5.43;;;;;;;15.90;55.94;102134.50;5032488;28;20041;-62
2023/05/23 08:45:05;;;;;;;17.55;5.53;;;;;;;15.90;56.15;102137.31;5032336;28;20040;-63
2023/05/23 08:47:33;;;;;;;12.02;5.45;;;;;;;15.85;56.63;102144.78;5029787;28;20435;-64
2023/05/23 08:50:01;;;;;;;16.30;5.53;;;;;;;15.87;56.64;102145.38;5016931;28;20034;-63
2023/05/23 08:52:28;;;;;;;14.38;5.63;;;;;;;15.91;56.24;102141.78;5013016;28;20087;-64
2023/05/23 08:54:55;;;;;;;17.00;5.53;;;;;;;15.92;56.79;102143.50;5015469;28;20042;-64
2023/05/23 08:57:21;;;;;;;10.80;5.50;;;;;;;15.90;57.07;102148.50;5012039;28;20029;-64
2023/05/23 08:59:47;;;;;;;12.13;5.20;;;;;;;15.91;57.39;102147.38;5014097;28;20364;-64
2023/05/23 09:02:13;;;;;;;9.68;4.72;;;;;;;15.89;57.59;102157.16;5031710;28;20048;-64
2023/05/23 09:04:38;;;;;;;12.48;4.57;;;;;;;15.94;57.85;102155.28;5027348;28;20064;-63
2023/05/23 09:07:05;;;;;;;11.80;4.38;;;;;;;15.94;57.73;102160.03;5017354;28;20373;-63
2023/05/23 09:09:30;;;;;;;8.52;4.90;;;;;;;15.87;58.55;102165.81;5016279;28;20032;-63
2023/05/23 09:11:58;;;;;;;12.38;4.38;;;;;;;15.98;57.79;102155.63;5031340;28;20037;-62
2023/05/23 09:14:23;;;;;;;11.32;3.95;;;;;;;16.03;57.07;102161.28;5024646;28;20066;-62
2023/05/23 09:16:49;;;;;;;9.27;4.18;;;;;;;16.01;57.79;102162.66;5021800;28;20140;-62
2023/05/23 09:19:14;;;;;;;11.18;4.82;;;;;;;16.00;57.83;102161.81;5028086;28;20037;-62
2023/05/23 09:21:43;;;;;;;11.13;5.13;;;;;;;15.89;58.50;102163.63;5030997;28;20104;-61
2023/05/23 09:24:10;;;;;;;13.25;4.53;;;;;;;15.97;57.74;102169.88;5026763;28;20119;-62
2023/05/23 09:26:36;;;;;;;12.60;3.67;;;;;;;15.97;56.90;102172.69;5029630;28;20037;-62
2023/05/23 09:29:04;;;;;;;15.13;4.18;;;;;;;15.94;56.26;102180.47;5031872;28;20029;-62
2023/05/23 09:31:31;;;;;;;15.25;4.18;;;;;;;15.98;56.44;102178.03;5027449;28;20404;-63
2023/05/23 09:33:58;;;;;;;14.48;3.35;;;;;;;16.07;56.30;102175.63;5029697;28;20469;-63
2023/05/23 09:36:28;;;;;;;13.15;3.28;;;;;;;16.09;54.97;102179.03;5031493;28;20461;-63
2023/05/23 09:38:53;;;;;;;13.80;3.03;;;;;;;16.09;54.54;102181.81;5013208;28;20148;-63
2023/05/23 09:41:20;;;;;;;16.33;3.95;;;;;;;16.10;54.44;102184.34;5010885;28;20121;-64
2023/05/23 09:43:52;;;;;;;12.23;3.13;;;;;;;16.09;53.92;102176.22;5026085;28;20457;-65
2023/05/23 09:46:20;;;;;;;13.18;3.30;;;;;;;16.02;53.48;102175.56;5031450;28;20096;-63
2023/05/23 09:48:50;;;;;;;17.33;3.92;;;;;;;16.05;53.16;102181.50;5010488;28;20038;-63
2023/05/23 09:51:20;;;;;;;13.73;3.28;;;;;;;16.08;53.55;102180.13;5010807;28;20054;-63
2023/05/23 09:53:46;;;;;;;17.40;3.55;;;;;;;16.15;53.23;102173.25;5012433;28;20057;-64
2023/05/23 09:56:12;;;;;;;16.65;3.40;;;;;;;16.17;52.39;102165.41;5010318;28;20025;-64
2023/05/23 09:58:37;;;;;;;12.38;3.13;;;;;;;16.21;52.32;102171.34;5014261;28;20029;-63
2023/05/23 10:01:08;;;;;;;15.18;2.97;;;;;;;16.25;52.40;102171.69;5021273;28;20029;-64
2023/05/23 10:03:38;;;;;;;13.48;3.40;;;;;;;16.28;51.79;102172.00;5022642;28;20060;-62
2023/05/23 10:06:11;;;;;;;15.75;3.88;;;;;;;16.28;52.21;102171.16;5019623;28;20056;-61
2023/05/23 10:08:41;;;;;;;10.95;3.08;;;;;;;16.20;51.74;102169.66;5029610;28;20045;-63
2023/05/23 10:11:13;;;;;;;12.43;2.97;;;;;;;16.34;52.32;102176.56;5029338;28;20040;-62
2023/05/23 10:13:48;;;;;;;10.90;3.30;;;;;;;16.54;51.46;102169.53;5022960;28;20033;-64
2023/05/23 10:16:35;;;;;;;15.85;3.10;;;;;;;16.69;51.04;102175.31;5022637;28;20667;-61
2023/05/23 10:19:09;;;;;;;27.58;4.03;;;;;;;16.83;50.45;102173.00;5016304;28;20061;-62
2023/05/23 10:21:43;;;;;;;28.00;5.45;;;;;;;16.88;50.23;102162.69;5013542;28;20108;-61
2023/05/23 10:24:11;;;;;;;28.50;4.72;;;;;;;16.84;49.47;102164.31;5010153;28;20429;-61
2023/05/23 10:26:36;;;;;;;55.83;7.20;;;;;;;16.86;49.72;102169.69;5011153;28;20040;-62
2023/05/23 10:29:02;;;;;;;27.58;3.95;;;;;;;16.87;49.94;102176.97;5016391;28;20029;-61
2023/05/23 10:31:28;;;;;;;15.40;3.83;;;;;;;16.89;49.85;102177.53;5008888;28;20041;-62
2023/05/23 10:34:36;;;;;;;11.95;3.10;;;;;;;16.99;50.30;102166.44;5019230;28;20116;-62
2023/05/23 10:37:03;;;;;;;13.25;2.92;;;;;;;17.00;48.77;102173.75;4983629;28;20746;-63
2023/05/23 10:39:36;;;;;;;11.65;3.47;;;;;;;16.95;49.55;102175.66;5011105;28;20026;-64
2023/05/23 10:42:07;;;;;;;11.98;3.72;;;;;;;17.08;52.93;102175.22;5012022;28;20473;-65
2023/05/23 10:44:33;;;;;;;9.43;3.00;;;;;;;17.32;53.07;102165.38;5018702;28;20029;-65
2023/05/23 10:47:02;;;;;;;11.85;3.25;;;;;;;17.35;50.12;102162.03;5015403;28;20033;-67
2023/05/23 10:49:38;;;;;;;9.20;3.33;;;;;;;17.64;55.14;102168.19;5013336;28;20547;-64
2023/05/23 10:52:06;;;;;;;11.05;3.40;;;;;;;17.58;54.03;102162.78;5019521;28;20404;-65
2023/05/23 10:54:46;;;;;;;14.38;3.53;;;;;;;17.50;50.56;102166.94;5018721;28;20060;-64
2023/05/23 10:57:16;;;;;;;9.65;3.20;;;;;;;17.40;46.98;102167.69;5028986;28;20033;-65
2023/05/23 10:59:41;;;;;;;11.02;3.13;;;;;;;17.62;51.51;102170.41;5029260;28;20480;-64
2023/05/23 11:02:13;;;;;;;10.07;3.45;;;;;;;17.77;50.92;102172.53;5017043;28;20111;-65
2023/05/23 11:04:39;;;;;;;13.60;3.65;;;;;;;17.72;46.92;102169.63;5010092;28;20025;-64
2023/05/23 11:07:04;;;;;;;9.52;3.67;;;;;;;17.76;48.68;102162.38;5016135;28;20040;-65
2023/05/23 11:09:30;;;;;;;12.38;3.47;;;;;;;17.79;48.03;102170.28;5015498;28;20036;-65
2023/05/23 11:12:05;;;;;;;16.85;4.53;;;;;;;17.77;46.70;102166.91;5018332;28;20099;-68